createdAt,value
2017-06-09T00:01:30.155Z,5
2017-06-09T00:11:30.130Z,4
2017-06-09T00:21:30.097Z,5
2017-06-09T00:31:30.108Z,4
2017-06-09T00:41:30.097Z,5
2017-06-09T00:51:30.161Z,5
2017-06-09T01:01:30.116Z,5
2017-06-09T01:11:30.066Z,5
2017-06-09T01:21:30.183Z,5
2017-06-09T01:31:30.149Z,5
2017-06-09T01:41:30.174Z,6
2017-06-09T01:51:30.100Z,5
2017-06-09T02:01:30.103Z,4
2017-06-09T02:11:30.140Z,5
2017-06-09T02:21:30.123Z,5
2017-06-09T02:31:30.250Z,5
2017-06-09T02:41:30.168Z,5
2017-06-09T02:51:30.093Z,5
2017-06-09T03:01:30.187Z,5
2017-06-09T03:11:30.100Z,5
2017-06-09T03:21:30.058Z,4
2017-06-09T03:31:30.222Z,5
2017-06-09T03:41:30.136Z,4
2017-06-09T03:51:30.287Z,4
2017-06-09T04:01:30.325Z,5
2017-06-09T04:11:30.331Z,5
2017-06-09T04:21:30.155Z,6
2017-06-09T04:31:30.186Z,6
2017-06-09T04:41:30.099Z,5
2017-06-09T04:51:30.171Z,4
2017-06-09T05:01:30.116Z,5
2017-06-09T05:11:30.175Z,5
2017-06-09T05:21:30.149Z,5
2017-06-09T05:31:30.254Z,4
2017-06-09T05:41:30.158Z,4
2017-06-09T05:51:30.180Z,4
2017-06-09T06:01:30.216Z,4
2017-06-09T06:11:30.247Z,4
2017-06-09T06:21:30.875Z,4
2017-06-09T06:31:30.164Z,5
2017-06-09T06:41:30.168Z,4
2017-06-09T06:51:30.175Z,5
2017-06-09T07:01:30.062Z,5
2017-06-09T07:11:30.074Z,5
2017-06-09T07:21:39.880Z,5
2017-06-09T07:31:30.075Z,5
2017-06-09T07:41:30.069Z,6
2017-06-09T07:51:30.122Z,6
2017-06-09T08:01:30.146Z,6
2017-06-09T08:11:30.113Z,6
2017-06-09T08:21:30.068Z,6
2017-06-09T08:31:30.157Z,6
2017-06-09T08:41:30.089Z,7
2017-06-09T08:51:30.094Z,6
2017-06-09T09:01:30.093Z,6
2017-06-09T09:11:30.196Z,5
2017-06-09T09:21:30.129Z,4
2017-06-09T09:31:30.232Z,4
2017-06-09T09:41:30.125Z,4
2017-06-09T09:51:30.084Z,5
2017-06-09T10:01:30.135Z,5
2017-06-09T10:11:30.119Z,5
2017-06-09T10:21:30.141Z,4
2017-06-09T10:31:30.135Z,4
2017-06-09T10:41:30.191Z,3
2017-06-09T10:51:30.116Z,3
2017-06-09T11:01:30.120Z,3
2017-06-09T11:11:30.173Z,3
2017-06-09T11:21:30.120Z,4
2017-06-09T11:31:30.154Z,4
2017-06-09T11:41:30.286Z,4
2017-06-09T11:51:30.283Z,3
2017-06-09T12:01:30.304Z,2
2017-06-09T12:11:30.288Z,2
2017-06-09T12:21:30.273Z,3
2017-06-09T12:31:30.395Z,4
2017-06-09T12:41:30.173Z,5
2017-06-09T12:51:30.157Z,5
2017-06-09T13:01:30.179Z,6
2017-06-09T13:11:30.154Z,6
2017-06-09T13:21:30.164Z,8
2017-06-09T13:31:30.154Z,5
2017-06-09T13:41:30.128Z,7
2017-06-09T13:51:30.183Z,6
2017-06-09T14:01:30.199Z,7
2017-06-09T14:11:30.186Z,6
2017-06-09T14:21:30.178Z,5
2017-06-09T14:31:30.277Z,4
2017-06-09T14:41:30.155Z,5
2017-06-09T14:51:30.170Z,6
2017-06-09T15:01:30.214Z,6
2017-06-09T15:11:30.144Z,5
2017-06-09T15:21:30.176Z,5
2017-06-09T15:31:30.134Z,2
2017-06-09T15:41:30.164Z,2
2017-06-09T15:51:30.173Z,3
2017-06-09T16:01:30.160Z,3
2017-06-09T16:11:42.378Z,3
2017-06-09T16:21:30.231Z,2
2017-06-09T16:31:30.233Z,2
2017-06-09T16:41:30.820Z,2
2017-06-09T16:51:31.097Z,1
2017-06-09T17:01:30.909Z,2
2017-06-09T17:11:30.454Z,2
2017-06-09T17:21:30.518Z,2
2017-06-09T17:31:30.491Z,1
2017-06-09T17:41:30.560Z,1
2017-06-09T17:51:30.388Z,2
2017-06-09T18:01:30.611Z,2
2017-06-09T18:11:30.268Z,3
2017-06-09T18:21:30.393Z,1
2017-06-09T18:31:30.380Z,2
2017-06-09T18:41:30.396Z,2
2017-06-09T18:51:30.332Z,2
2017-06-09T19:01:30.708Z,2
2017-06-09T19:11:30.343Z,2
2017-06-09T19:21:30.300Z,2
2017-06-09T19:31:30.556Z,2
2017-06-09T19:41:30.434Z,3
2017-06-09T19:51:30.491Z,3
2017-06-09T20:01:30.342Z,3
2017-06-09T20:11:30.265Z,3
2017-06-09T20:21:31.441Z,3
2017-06-09T20:31:30.379Z,4
2017-06-09T20:41:30.458Z,4
2017-06-09T20:51:30.906Z,4
2017-06-09T21:01:30.419Z,3
2017-06-09T21:11:30.330Z,4
2017-06-09T21:21:30.377Z,6
2017-06-09T21:31:30.228Z,4
2017-06-09T21:41:30.530Z,4
2017-06-09T21:51:30.329Z,5
2017-06-09T22:01:30.305Z,4
2017-06-09T22:11:30.268Z,4
2017-06-09T22:21:30.356Z,4
2017-06-09T22:31:30.321Z,4
2017-06-09T22:41:30.372Z,6
2017-06-09T22:51:30.587Z,5
2017-06-09T23:01:30.243Z,6
2017-06-09T23:11:30.352Z,6
2017-06-09T23:21:30.585Z,7
2017-06-09T23:31:30.268Z,7
2017-06-09T23:41:30.306Z,7
2017-06-09T23:51:30.300Z,6
